sensor_id;sensor_type;location;lat;lon;timestamp;P1;durP1;ratioP1;P2;durP2;ratioP2
78931;SDS011;68331;53.362;55.932;2023-08-07T00:01:30;12.95;;;8.18;;
78931;SDS011;68331;53.362;55.932;2023-08-07T00:03:56;9.95;;;9.02;;
78931;SDS011;68331;53.362;55.932;2023-08-07T00:06:22;10.88;;;9.98;;
78931;SDS011;68331;53.362;55.932;2023-08-07T00:08:48;10.13;;;9.13;;
78931;SDS011;68331;53.362;55.932;2023-08-07T00:11:14;10.93;;;10.02;;
78931;SDS011;68331;53.362;55.932;2023-08-07T00:13:40;9.88;;;8.98;;
78931;SDS011;68331;53.362;55.932;2023-08-07T00:16:06;9.98;;;9.18;;
78931;SDS011;68331;53.362;55.932;2023-08-07T00:18:32;9.88;;;8.90;;
78931;SDS011;68331;53.362;55.932;2023-08-07T00:20:58;9.60;;;8.68;;
78931;SDS011;68331;53.362;55.932;2023-08-07T00:23:24;8.10;;;7.40;;
78931;SDS011;68331;53.362;55.932;2023-08-07T00:25:49;8.93;;;7.25;;
78931;SDS011;68331;53.362;55.932;2023-08-07T00:28:15;7.32;;;6.63;;
78931;SDS011;68331;53.362;55.932;2023-08-07T00:30:41;7.00;;;6.30;;
78931;SDS011;68331;53.362;55.932;2023-08-07T00:33:07;8.23;;;6.43;;
78931;SDS011;68331;53.362;55.932;2023-08-07T00:35:33;7.28;;;6.57;;
78931;SDS011;68331;53.362;55.932;2023-08-07T00:37:59;7.50;;;6.32;;
78931;SDS011;68331;53.362;55.932;2023-08-07T00:40:27;9.00;;;6.60;;
78931;SDS011;68331;53.362;55.932;2023-08-07T00:42:53;6.70;;;6.10;;
78931;SDS011;68331;53.362;55.932;2023-08-07T00:45:19;6.10;;;5.32;;
78931;SDS011;68331;53.362;55.932;2023-08-07T00:47:46;9.40;;;6.35;;
78931;SDS011;68331;53.362;55.932;2023-08-07T00:50:12;7.13;;;6.30;;
78931;SDS011;68331;53.362;55.932;2023-08-07T00:52:39;6.03;;;5.38;;
78931;SDS011;68331;53.362;55.932;2023-08-07T00:55:05;8.20;;;6.25;;
78931;SDS011;68331;53.362;55.932;2023-08-07T00:57:31;9.50;;;7.07;;
78931;SDS011;68331;53.362;55.932;2023-08-07T00:59:58;7.97;;;7.18;;
78931;SDS011;68331;53.362;55.932;2023-08-07T01:02:25;10.00;;;6.50;;
78931;SDS011;68331;53.362;55.932;2023-08-07T01:04:51;7.28;;;6.47;;
78931;SDS011;68331;53.362;55.932;2023-08-07T01:07:17;7.97;;;7.10;;
78931;SDS011;68331;53.362;55.932;2023-08-07T01:09:43;9.23;;;7.40;;
78931;SDS011;68331;53.362;55.932;2023-08-07T01:12:13;8.48;;;7.30;;
78931;SDS011;68331;53.362;55.932;2023-08-07T01:14:52;7.75;;;7.00;;
78931;SDS011;68331;53.362;55.932;2023-08-07T01:17:24;8.98;;;7.45;;
78931;SDS011;68331;53.362;55.932;2023-08-07T01:19:51;7.38;;;6.68;;
78931;SDS011;68331;53.362;55.932;2023-08-07T01:22:20;8.05;;;6.82;;
78931;SDS011;68331;53.362;55.932;2023-08-07T01:24:48;8.02;;;6.93;;
78931;SDS011;68331;53.362;55.932;2023-08-07T01:29:54;9.30;;;6.97;;
78931;SDS011;68331;53.362;55.932;2023-08-07T01:35:20;8.77;;;8.00;;
78931;SDS011;68331;53.362;55.932;2023-08-07T01:37:53;9.10;;;8.05;;
78931;SDS011;68331;53.362;55.932;2023-08-07T01:40:21;9.27;;;8.38;;
78931;SDS011;68331;53.362;55.932;2023-08-07T01:42:47;10.35;;;8.18;;
78931;SDS011;68331;53.362;55.932;2023-08-07T01:45:13;9.27;;;8.48;;
78931;SDS011;68331;53.362;55.932;2023-08-07T01:47:39;8.57;;;7.72;;
78931;SDS011;68331;53.362;55.932;2023-08-07T01:50:06;8.98;;;7.20;;
78931;SDS011;68331;53.362;55.932;2023-08-07T01:52:32;11.88;;;6.85;;
78931;SDS011;68331;53.362;55.932;2023-08-07T01:54:58;7.40;;;6.68;;
78931;SDS011;68331;53.362;55.932;2023-08-07T01:57:24;8.60;;;7.70;;
78931;SDS011;68331;53.362;55.932;2023-08-07T01:59:51;8.55;;;7.75;;
78931;SDS011;68331;53.362;55.932;2023-08-07T02:02:17;8.02;;;7.32;;
78931;SDS011;68331;53.362;55.932;2023-08-07T02:04:43;8.80;;;8.00;;
78931;SDS011;68331;53.362;55.932;2023-08-07T02:07:10;9.40;;;7.97;;
78931;SDS011;68331;53.362;55.932;2023-08-07T02:09:36;13.48;;;9.32;;
78931;SDS011;68331;53.362;55.932;2023-08-07T02:14:35;10.20;;;9.05;;
78931;SDS011;68331;53.362;55.932;2023-08-07T02:17:01;10.10;;;8.38;;
78931;SDS011;68331;53.362;55.932;2023-08-07T02:19:28;10.00;;;8.63;;
78931;SDS011;68331;53.362;55.932;2023-08-07T02:21:58;13.55;;;8.77;;
78931;SDS011;68331;53.362;55.932;2023-08-07T02:24:24;9.40;;;8.18;;
78931;SDS011;68331;53.362;55.932;2023-08-07T02:26:50;10.05;;;8.52;;
78931;SDS011;68331;53.362;55.932;2023-08-07T02:29:18;10.93;;;8.55;;
78931;SDS011;68331;53.362;55.932;2023-08-07T02:31:44;10.20;;;8.32;;
78931;SDS011;68331;53.362;55.932;2023-08-07T02:34:10;12.02;;;8.10;;
78931;SDS011;68331;53.362;55.932;2023-08-07T02:36:36;11.48;;;7.63;;
78931;SDS011;68331;53.362;55.932;2023-08-07T02:39:02;9.05;;;7.05;;
78931;SDS011;68331;53.362;55.932;2023-08-07T02:41:29;7.68;;;6.47;;
78931;SDS011;68331;53.362;55.932;2023-08-07T02:43:57;9.18;;;6.65;;
78931;SDS011;68331;53.362;55.932;2023-08-07T02:46:23;9.25;;;6.93;;
78931;SDS011;68331;53.362;55.932;2023-08-07T02:48:49;8.75;;;7.15;;
78931;SDS011;68331;53.362;55.932;2023-08-07T02:51:15;10.70;;;6.80;;
78931;SDS011;68331;53.362;55.932;2023-08-07T02:53:42;10.48;;;6.88;;
78931;SDS011;68331;53.362;55.932;2023-08-07T02:56:08;7.25;;;6.20;;
78931;SDS011;68331;53.362;55.932;2023-08-07T02:58:34;9.52;;;6.18;;
78931;SDS011;68331;53.362;55.932;2023-08-07T03:01:04;11.43;;;6.65;;
78931;SDS011;68331;53.362;55.932;2023-08-07T03:03:33;10.25;;;6.65;;
78931;SDS011;68331;53.362;55.932;2023-08-07T03:05:59;10.15;;;6.80;;
78931;SDS011;68331;53.362;55.932;2023-08-07T03:08:25;12.30;;;7.40;;
78931;SDS011;68331;53.362;55.932;2023-08-07T03:10:55;9.05;;;6.63;;
78931;SDS011;68331;53.362;55.932;2023-08-07T03:13:24;8.18;;;6.60;;
78931;SDS011;68331;53.362;55.932;2023-08-07T03:15:58;9.40;;;7.25;;
78931;SDS011;68331;53.362;55.932;2023-08-07T03:18:31;9.68;;;7.00;;
78931;SDS011;68331;53.362;55.932;2023-08-07T03:20:58;8.07;;;7.20;;
78931;SDS011;68331;53.362;55.932;2023-08-07T03:23:25;10.68;;;7.10;;
78931;SDS011;68331;53.362;55.932;2023-08-07T03:26:07;7.68;;;6.82;;
78931;SDS011;68331;53.362;55.932;2023-08-07T03:28:36;7.75;;;6.15;;
78931;SDS011;68331;53.362;55.932;2023-08-07T03:31:04;10.85;;;6.07;;
78931;SDS011;68331;53.362;55.932;2023-08-07T03:33:33;7.15;;;6.15;;
78931;SDS011;68331;53.362;55.932;2023-08-07T03:35:59;8.35;;;6.93;;
78931;SDS011;68331;53.362;55.932;2023-08-07T03:38:26;9.07;;;7.05;;
78931;SDS011;68331;53.362;55.932;2023-08-07T03:40:54;8.45;;;6.53;;
78931;SDS011;68331;53.362;55.932;2023-08-07T03:43:21;6.75;;;5.90;;
78931;SDS011;68331;53.362;55.932;2023-08-07T03:45:47;7.82;;;6.53;;
78931;SDS011;68331;53.362;55.932;2023-08-07T03:48:13;6.88;;;5.50;;
78931;SDS011;68331;53.362;55.932;2023-08-07T03:50:40;9.40;;;6.13;;
78931;SDS011;68331;53.362;55.932;2023-08-07T03:53:07;7.47;;;6.72;;
78931;SDS011;68331;53.362;55.932;2023-08-07T03:55:37;6.88;;;6.20;;
78931;SDS011;68331;53.362;55.932;2023-08-07T03:58:04;7.25;;;6.53;;
78931;SDS011;68331;53.362;55.932;2023-08-07T04:00:30;7.35;;;6.25;;
78931;SDS011;68331;53.362;55.932;2023-08-07T04:03:04;10.57;;;6.90;;
78931;SDS011;68331;53.362;55.932;2023-08-07T04:05:32;12.15;;;6.43;;
78931;SDS011;68331;53.362;55.932;2023-08-07T04:07:59;8.15;;;6.03;;
78931;SDS011;68331;53.362;55.932;2023-08-07T04:10:26;6.32;;;5.40;;
78931;SDS011;68331;53.362;55.932;2023-08-07T04:12:52;7.50;;;6.40;;
78931;SDS011;68331;53.362;55.932;2023-08-07T04:27:41;6.25;;;5.65;;
78931;SDS011;68331;53.362;55.932;2023-08-07T04:30:07;7.07;;;5.22;;
78931;SDS011;68331;53.362;55.932;2023-08-07T04:32:34;6.85;;;5.10;;
78931;SDS011;68331;53.362;55.932;2023-08-07T04:35:00;6.15;;;5.15;;
78931;SDS011;68331;53.362;55.932;2023-08-07T04:37:26;7.07;;;5.43;;
78931;SDS011;68331;53.362;55.932;2023-08-07T04:39:55;7.70;;;5.20;;
78931;SDS011;68331;53.362;55.932;2023-08-07T04:42:22;6.28;;;5.57;;
78931;SDS011;68331;53.362;55.932;2023-08-07T04:44:48;5.65;;;5.00;;
78931;SDS011;68331;53.362;55.932;2023-08-07T04:47:14;11.55;;;5.65;;
78931;SDS011;68331;53.362;55.932;2023-08-07T04:49:39;7.90;;;6.03;;
78931;SDS011;68331;53.362;55.932;2023-08-07T04:52:06;7.13;;;5.28;;
78931;SDS011;68331;53.362;55.932;2023-08-07T04:54:32;14.02;;;5.18;;
78931;SDS011;68331;53.362;55.932;2023-08-07T04:56:58;9.98;;;5.55;;
78931;SDS011;68331;53.362;55.932;2023-08-07T04:59:23;10.43;;;6.00;;
78931;SDS011;68331;53.362;55.932;2023-08-07T05:01:49;8.55;;;5.75;;
78931;SDS011;68331;53.362;55.932;2023-08-07T05:04:15;10.38;;;6.13;;
78931;SDS011;68331;53.362;55.932;2023-08-07T05:06:41;11.63;;;6.60;;
78931;SDS011;68331;53.362;55.932;2023-08-07T05:09:07;12.57;;;6.28;;
78931;SDS011;68331;53.362;55.932;2023-08-07T05:11:33;9.55;;;5.53;;
78931;SDS011;68331;53.362;55.932;2023-08-07T05:13:59;11.25;;;6.53;;
78931;SDS011;68331;53.362;55.932;2023-08-07T05:16:25;13.70;;;7.13;;
78931;SDS011;68331;53.362;55.932;2023-08-07T05:18:51;13.50;;;7.40;;
78931;SDS011;68331;53.362;55.932;2023-08-07T05:21:17;12.80;;;6.30;;
78931;SDS011;68331;53.362;55.932;2023-08-07T05:23:43;10.90;;;6.15;;
78931;SDS011;68331;53.362;55.932;2023-08-07T05:26:09;13.20;;;7.22;;
78931;SDS011;68331;53.362;55.932;2023-08-07T05:28:35;12.38;;;6.88;;
78931;SDS011;68331;53.362;55.932;2023-08-07T05:31:01;18.25;;;8.07;;
78931;SDS011;68331;53.362;55.932;2023-08-07T05:33:27;16.60;;;6.80;;
78931;SDS011;68331;53.362;55.932;2023-08-07T05:35:53;15.88;;;6.88;;
78931;SDS011;68331;53.362;55.932;2023-08-07T05:38:20;12.40;;;7.72;;
78931;SDS011;68331;53.362;55.932;2023-08-07T05:40:46;16.88;;;8.45;;
78931;SDS011;68331;53.362;55.932;2023-08-07T05:43:12;17.08;;;7.57;;
78931;SDS011;68331;53.362;55.932;2023-08-07T05:45:38;15.02;;;6.75;;
78931;SDS011;68331;53.362;55.932;2023-08-07T05:48:05;13.00;;;7.03;;
78931;SDS011;68331;53.362;55.932;2023-08-07T05:50:32;10.40;;;6.93;;
78931;SDS011;68331;53.362;55.932;2023-08-07T05:52:58;11.25;;;6.95;;
78931;SDS011;68331;53.362;55.932;2023-08-07T05:55:24;11.15;;;6.57;;
78931;SDS011;68331;53.362;55.932;2023-08-07T05:57:50;12.27;;;7.18;;
78931;SDS011;68331;53.362;55.932;2023-08-07T06:00:16;9.50;;;6.30;;
78931;SDS011;68331;53.362;55.932;2023-08-07T06:02:45;11.30;;;7.35;;
78931;SDS011;68331;53.362;55.932;2023-08-07T06:05:11;9.30;;;6.13;;
78931;SDS011;68331;53.362;55.932;2023-08-07T06:07:39;10.35;;;5.75;;
78931;SDS011;68331;53.362;55.932;2023-08-07T06:10:05;9.52;;;6.38;;
78931;SDS011;68331;53.362;55.932;2023-08-07T06:12:32;10.20;;;6.50;;
78931;SDS011;68331;53.362;55.932;2023-08-07T06:14:58;12.05;;;5.80;;
78931;SDS011;68331;53.362;55.932;2023-08-07T06:17:24;6.85;;;5.15;;
78931;SDS011;68331;53.362;55.932;2023-08-07T06:22:16;5.70;;;4.78;;
78931;SDS011;68331;53.362;55.932;2023-08-07T06:24:42;7.75;;;5.10;;
78931;SDS011;68331;53.362;55.932;2023-08-07T06:27:08;5.38;;;4.82;;
78931;SDS011;68331;53.362;55.932;2023-08-07T06:29:33;6.70;;;5.22;;
78931;SDS011;68331;53.362;55.932;2023-08-07T06:34:25;7.18;;;5.55;;
78931;SDS011;68331;53.362;55.932;2023-08-07T06:36:51;7.63;;;5.13;;
78931;SDS011;68331;53.362;55.932;2023-08-07T06:39:17;5.35;;;4.78;;
78931;SDS011;68331;53.362;55.932;2023-08-07T06:41:44;8.15;;;5.13;;
78931;SDS011;68331;53.362;55.932;2023-08-07T06:44:11;7.78;;;4.90;;
78931;SDS011;68331;53.362;55.932;2023-08-07T06:46:38;4.75;;;4.35;;
78931;SDS011;68331;53.362;55.932;2023-08-07T06:49:04;6.95;;;5.05;;
78931;SDS011;68331;53.362;55.932;2023-08-07T06:51:30;8.80;;;5.35;;
78931;SDS011;68331;53.362;55.932;2023-08-07T06:53:56;5.82;;;4.90;;
78931;SDS011;68331;53.362;55.932;2023-08-07T06:56:23;5.53;;;4.70;;
78931;SDS011;68331;53.362;55.932;2023-08-07T06:58:48;7.65;;;5.45;;
78931;SDS011;68331;53.362;55.932;2023-08-07T07:01:15;7.60;;;5.78;;
78931;SDS011;68331;53.362;55.932;2023-08-07T07:03:42;6.93;;;5.00;;
78931;SDS011;68331;53.362;55.932;2023-08-07T07:06:17;6.15;;;5.05;;
78931;SDS011;68331;53.362;55.932;2023-08-07T07:11:09;7.43;;;5.35;;
78931;SDS011;68331;53.362;55.932;2023-08-07T07:13:37;6.07;;;5.38;;
78931;SDS011;68331;53.362;55.932;2023-08-07T07:16:03;9.18;;;5.30;;
78931;SDS011;68331;53.362;55.932;2023-08-07T07:18:29;7.22;;;5.15;;
78931;SDS011;68331;53.362;55.932;2023-08-07T07:20:58;6.78;;;5.50;;
78931;SDS011;68331;53.362;55.932;2023-08-07T07:23:26;5.75;;;5.25;;
78931;SDS011;68331;53.362;55.932;2023-08-07T07:25:52;7.85;;;5.35;;
78931;SDS011;68331;53.362;55.932;2023-08-07T07:28:18;7.90;;;5.53;;
78931;SDS011;68331;53.362;55.932;2023-08-07T07:30:45;8.38;;;5.65;;
78931;SDS011;68331;53.362;55.932;2023-08-07T07:33:11;7.20;;;5.57;;
78931;SDS011;68331;53.362;55.932;2023-08-07T07:35:39;7.40;;;5.50;;
78931;SDS011;68331;53.362;55.932;2023-08-07T07:38:06;7.75;;;6.13;;
78931;SDS011;68331;53.362;55.932;2023-08-07T07:40:33;8.13;;;5.72;;
78931;SDS011;68331;53.362;55.932;2023-08-07T07:43:00;7.68;;;6.28;;
78931;SDS011;68331;53.362;55.932;2023-08-07T07:45:25;6.63;;;5.60;;
78931;SDS011;68331;53.362;55.932;2023-08-07T07:47:52;9.07;;;6.45;;
78931;SDS011;68331;53.362;55.932;2023-08-07T07:50:18;6.28;;;5.47;;
78931;SDS011;68331;53.362;55.932;2023-08-07T07:52:44;7.15;;;6.05;;
78931;SDS011;68331;53.362;55.932;2023-08-07T07:55:10;8.32;;;5.60;;
78931;SDS011;68331;53.362;55.932;2023-08-07T07:57:37;6.18;;;5.57;;
78931;SDS011;68331;53.362;55.932;2023-08-07T08:00:03;9.75;;;5.65;;
78931;SDS011;68331;53.362;55.932;2023-08-07T08:02:37;9.68;;;6.00;;
78931;SDS011;68331;53.362;55.932;2023-08-07T08:05:03;5.47;;;4.97;;
78931;SDS011;68331;53.362;55.932;2023-08-07T08:07:29;9.55;;;6.32;;
78931;SDS011;68331;53.362;55.932;2023-08-07T08:09:57;9.00;;;5.30;;
78931;SDS011;68331;53.362;55.932;2023-08-07T08:12:24;7.00;;;5.10;;
78931;SDS011;68331;53.362;55.932;2023-08-07T08:14:49;8.50;;;6.53;;
78931;SDS011;68331;53.362;55.932;2023-08-07T08:17:16;7.63;;;6.20;;
78931;SDS011;68331;53.362;55.932;2023-08-07T08:19:42;8.13;;;5.60;;
78931;SDS011;68331;53.362;55.932;2023-08-07T08:22:08;7.72;;;5.40;;
78931;SDS011;68331;53.362;55.932;2023-08-07T08:24:34;7.43;;;5.28;;
78931;SDS011;68331;53.362;55.932;2023-08-07T08:27:00;6.22;;;5.13;;
78931;SDS011;68331;53.362;55.932;2023-08-07T08:29:26;6.45;;;5.35;;
78931;SDS011;68331;53.362;55.932;2023-08-07T08:31:55;7.68;;;5.18;;
78931;SDS011;68331;53.362;55.932;2023-08-07T08:36:47;7.72;;;5.43;;
78931;SDS011;68331;53.362;55.932;2023-08-07T08:39:13;9.90;;;5.32;;
78931;SDS011;68331;53.362;55.932;2023-08-07T08:41:40;5.82;;;5.30;;
78931;SDS011;68331;53.362;55.932;2023-08-07T08:44:09;9.75;;;5.22;;
78931;SDS011;68331;53.362;55.932;2023-08-07T08:46:41;6.43;;;5.40;;
78931;SDS011;68331;53.362;55.932;2023-08-07T08:49:07;9.85;;;5.57;;
78931;SDS011;68331;53.362;55.932;2023-08-07T08:51:37;6.63;;;5.93;;
78931;SDS011;68331;53.362;55.932;2023-08-07T08:56:29;8.40;;;6.07;;
78931;SDS011;68331;53.362;55.932;2023-08-07T08:58:56;12.70;;;11.40;;
78931;SDS011;68331;53.362;55.932;2023-08-07T09:01:23;8.50;;;6.05;;
78931;SDS011;68331;53.362;55.932;2023-08-07T09:06:18;7.60;;;6.35;;
78931;SDS011;68331;53.362;55.932;2023-08-07T09:08:44;7.50;;;6.78;;
78931;SDS011;68331;53.362;55.932;2023-08-07T09:11:12;9.52;;;6.78;;
78931;SDS011;68331;53.362;55.932;2023-08-07T09:13:41;13.07;;;6.75;;
78931;SDS011;68331;53.362;55.932;2023-08-07T09:16:11;6.32;;;5.72;;
78931;SDS011;68331;53.362;55.932;2023-08-07T09:18:37;7.75;;;6.15;;
78931;SDS011;68331;53.362;55.932;2023-08-07T09:21:03;7.35;;;6.47;;
78931;SDS011;68331;53.362;55.932;2023-08-07T09:23:30;7.82;;;6.40;;
78931;SDS011;68331;53.362;55.932;2023-08-07T09:26:03;6.78;;;5.97;;
78931;SDS011;68331;53.362;55.932;2023-08-07T09:28:30;7.43;;;6.50;;
78931;SDS011;68331;53.362;55.932;2023-08-07T09:30:58;7.07;;;6.47;;
78931;SDS011;68331;53.362;55.932;2023-08-07T09:33:25;8.15;;;6.78;;
78931;SDS011;68331;53.362;55.932;2023-08-07T09:35:52;8.15;;;6.68;;
78931;SDS011;68331;53.362;55.932;2023-08-07T09:38:19;5.85;;;5.28;;
78931;SDS011;68331;53.362;55.932;2023-08-07T09:40:48;6.80;;;6.10;;
78931;SDS011;68331;53.362;55.932;2023-08-07T09:43:21;5.68;;;5.15;;
78931;SDS011;68331;53.362;55.932;2023-08-07T09:45:48;8.80;;;5.53;;
78931;SDS011;68331;53.362;55.932;2023-08-07T09:48:24;6.80;;;5.70;;
78931;SDS011;68331;53.362;55.932;2023-08-07T09:50:51;7.68;;;5.40;;
78931;SDS011;68331;53.362;55.932;2023-08-07T09:53:17;7.75;;;5.32;;
78931;SDS011;68331;53.362;55.932;2023-08-07T09:55:43;7.15;;;5.50;;
78931;SDS011;68331;53.362;55.932;2023-08-07T09:58:09;7.50;;;5.70;;
78931;SDS011;68331;53.362;55.932;2023-08-07T10:00:39;7.03;;;5.75;;
78931;SDS011;68331;53.362;55.932;2023-08-07T10:03:06;8.02;;;5.50;;
78931;SDS011;68331;53.362;55.932;2023-08-07T10:05:33;7.10;;;5.43;;
78931;SDS011;68331;53.362;55.932;2023-08-07T10:07:59;6.88;;;5.05;;
78931;SDS011;68331;53.362;55.932;2023-08-07T10:10:27;13.40;;;5.68;;
78931;SDS011;68331;53.362;55.932;2023-08-07T10:12:53;5.85;;;5.35;;
78931;SDS011;68331;53.362;55.932;2023-08-07T10:15:21;5.97;;;5.32;;
78931;SDS011;68331;53.362;55.932;2023-08-07T10:17:47;8.48;;;5.22;;
78931;SDS011;68331;53.362;55.932;2023-08-07T10:22:39;6.32;;;4.90;;
78931;SDS011;68331;53.362;55.932;2023-08-07T10:25:08;7.32;;;5.30;;
78931;SDS011;68331;53.362;55.932;2023-08-07T10:27:36;7.45;;;5.95;;
78931;SDS011;68331;53.362;55.932;2023-08-07T10:30:07;6.15;;;5.45;;
78931;SDS011;68331;53.362;55.932;2023-08-07T10:32:48;8.38;;;6.20;;
78931;SDS011;68331;53.362;55.932;2023-08-07T10:35:23;8.07;;;5.85;;
78931;SDS011;68331;53.362;55.932;2023-08-07T10:37:50;7.53;;;5.72;;
78931;SDS011;68331;53.362;55.932;2023-08-07T10:40:18;7.68;;;5.07;;
78931;SDS011;68331;53.362;55.932;2023-08-07T10:45:22;7.38;;;4.97;;
78931;SDS011;68331;53.362;55.932;2023-08-07T10:48:02;5.25;;;4.72;;
78931;SDS011;68331;53.362;55.932;2023-08-07T10:50:31;5.75;;;4.75;;
78931;SDS011;68331;53.362;55.932;2023-08-07T10:53:01;5.75;;;4.88;;
78931;SDS011;68331;53.362;55.932;2023-08-07T10:55:48;5.63;;;4.85;;
78931;SDS011;68331;53.362;55.932;2023-08-07T10:58:21;8.73;;;5.13;;
78931;SDS011;68331;53.362;55.932;2023-08-07T11:00:49;6.20;;;5.20;;
78931;SDS011;68331;53.362;55.932;2023-08-07T11:03:40;6.63;;;5.20;;
78931;SDS011;68331;53.362;55.932;2023-08-07T11:06:09;6.80;;;5.18;;
78931;SDS011;68331;53.362;55.932;2023-08-07T11:08:36;4.93;;;4.43;;
78931;SDS011;68331;53.362;55.932;2023-08-07T11:11:04;5.80;;;4.90;;
78931;SDS011;68331;53.362;55.932;2023-08-07T11:13:30;6.32;;;5.18;;
78931;SDS011;68331;53.362;55.932;2023-08-07T11:16:00;6.03;;;4.93;;
78931;SDS011;68331;53.362;55.932;2023-08-07T11:18:28;6.45;;;5.35;;
78931;SDS011;68331;53.362;55.932;2023-08-07T11:20:55;5.22;;;4.72;;
78931;SDS011;68331;53.362;55.932;2023-08-07T11:23:41;6.15;;;4.70;;
78931;SDS011;68331;53.362;55.932;2023-08-07T11:26:09;7.85;;;5.72;;
78931;SDS011;68331;53.362;55.932;2023-08-07T11:28:35;7.90;;;5.95;;
78931;SDS011;68331;53.362;55.932;2023-08-07T11:31:01;6.22;;;5.28;;
78931;SDS011;68331;53.362;55.932;2023-08-07T11:33:28;5.78;;;5.13;;
78931;SDS011;68331;53.362;55.932;2023-08-07T11:35:55;6.43;;;4.57;;
78931;SDS011;68331;53.362;55.932;2023-08-07T11:40:58;6.28;;;5.68;;
78931;SDS011;68331;53.362;55.932;2023-08-07T11:43:29;9.30;;;6.00;;
78931;SDS011;68331;53.362;55.932;2023-08-07T11:46:03;6.53;;;5.50;;
78931;SDS011;68331;53.362;55.932;2023-08-07T11:48:31;6.45;;;5.60;;
78931;SDS011;68331;53.362;55.932;2023-08-07T11:50:59;7.32;;;5.60;;
78931;SDS011;68331;53.362;55.932;2023-08-07T11:53:27;6.47;;;5.30;;
78931;SDS011;68331;53.362;55.932;2023-08-07T11:58:23;8.57;;;6.30;;
78931;SDS011;68331;53.362;55.932;2023-08-07T12:00:50;8.00;;;5.97;;
78931;SDS011;68331;53.362;55.932;2023-08-07T12:03:24;6.53;;;5.93;;
78931;SDS011;68331;53.362;55.932;2023-08-07T12:05:53;7.40;;;6.18;;
78931;SDS011;68331;53.362;55.932;2023-08-07T12:08:21;7.85;;;6.28;;
78931;SDS011;68331;53.362;55.932;2023-08-07T12:10:53;6.32;;;5.72;;
78931;SDS011;68331;53.362;55.932;2023-08-07T12:13:23;6.82;;;6.13;;
78931;SDS011;68331;53.362;55.932;2023-08-07T12:15:53;6.82;;;6.22;;
78931;SDS011;68331;53.362;55.932;2023-08-07T12:18:20;7.82;;;6.55;;
78931;SDS011;68331;53.362;55.932;2023-08-07T12:20:53;7.65;;;6.13;;
78931;SDS011;68331;53.362;55.932;2023-08-07T12:23:26;7.93;;;6.32;;
78931;SDS011;68331;53.362;55.932;2023-08-07T12:25:58;8.13;;;6.47;;
78931;SDS011;68331;53.362;55.932;2023-08-07T12:28:24;7.93;;;6.78;;
78931;SDS011;68331;53.362;55.932;2023-08-07T12:30:51;12.77;;;6.50;;
78931;SDS011;68331;53.362;55.932;2023-08-07T12:33:18;8.43;;;6.93;;
78931;SDS011;68331;53.362;55.932;2023-08-07T12:35:44;8.65;;;6.22;;
78931;SDS011;68331;53.362;55.932;2023-08-07T12:40:40;7.90;;;6.68;;
78931;SDS011;68331;53.362;55.932;2023-08-07T12:45:33;8.10;;;6.70;;
78931;SDS011;68331;53.362;55.932;2023-08-07T12:47:59;9.40;;;6.68;;
78931;SDS011;68331;53.362;55.932;2023-08-07T12:50:27;9.90;;;7.40;;
78931;SDS011;68331;53.362;55.932;2023-08-07T12:52:53;13.27;;;10.95;;
78931;SDS011;68331;53.362;55.932;2023-08-07T12:55:20;10.45;;;7.38;;
78931;SDS011;68331;53.362;55.932;2023-08-07T12:57:46;10.95;;;7.65;;
78931;SDS011;68331;53.362;55.932;2023-08-07T13:00:15;10.93;;;8.00;;
78931;SDS011;68331;53.362;55.932;2023-08-07T13:02:42;8.85;;;7.22;;
78931;SDS011;68331;53.362;55.932;2023-08-07T13:05:10;11.52;;;8.07;;
78931;SDS011;68331;53.362;55.932;2023-08-07T13:07:38;11.25;;;7.95;;
78931;SDS011;68331;53.362;55.932;2023-08-07T13:10:06;11.13;;;8.23;;
78931;SDS011;68331;53.362;55.932;2023-08-07T13:12:35;10.18;;;8.02;;
78931;SDS011;68331;53.362;55.932;2023-08-07T13:15:02;9.32;;;8.15;;
78931;SDS011;68331;53.362;55.932;2023-08-07T13:17:32;12.10;;;8.90;;
78931;SDS011;68331;53.362;55.932;2023-08-07T13:19:58;13.00;;;8.80;;
78931;SDS011;68331;53.362;55.932;2023-08-07T13:22:27;13.07;;;9.35;;
78931;SDS011;68331;53.362;55.932;2023-08-07T13:24:53;8.85;;;7.55;;
78931;SDS011;68331;53.362;55.932;2023-08-07T13:27:19;12.20;;;8.73;;
78931;SDS011;68331;53.362;55.932;2023-08-07T13:29:46;12.18;;;9.40;;
78931;SDS011;68331;53.362;55.932;2023-08-07T13:32:12;13.25;;;9.30;;
78931;SDS011;68331;53.362;55.932;2023-08-07T13:34:39;11.45;;;8.88;;
78931;SDS011;68331;53.362;55.932;2023-08-07T13:37:05;10.88;;;8.52;;
78931;SDS011;68331;53.362;55.932;2023-08-07T13:39:33;11.20;;;8.88;;
78931;SDS011;68331;53.362;55.932;2023-08-07T13:42:00;10.63;;;8.38;;
78931;SDS011;68331;53.362;55.932;2023-08-07T13:44:27;8.95;;;8.00;;
78931;SDS011;68331;53.362;55.932;2023-08-07T13:46:53;12.88;;;9.15;;
78931;SDS011;68331;53.362;55.932;2023-08-07T13:49:23;11.60;;;8.95;;
78931;SDS011;68331;53.362;55.932;2023-08-07T13:51:49;10.90;;;9.23;;
78931;SDS011;68331;53.362;55.932;2023-08-07T13:54:16;13.20;;;8.80;;
78931;SDS011;68331;53.362;55.932;2023-08-07T13:56:42;12.85;;;9.02;;
78931;SDS011;68331;53.362;55.932;2023-08-07T13:59:09;12.13;;;9.15;;
78931;SDS011;68331;53.362;55.932;2023-08-07T14:01:35;11.48;;;9.20;;
78931;SDS011;68331;53.362;55.932;2023-08-07T14:04:01;10.38;;;9.02;;
78931;SDS011;68331;53.362;55.932;2023-08-07T14:06:28;10.98;;;8.70;;
78931;SDS011;68331;53.362;55.932;2023-08-07T14:08:54;10.63;;;8.52;;
78931;SDS011;68331;53.362;55.932;2023-08-07T14:11:20;9.65;;;8.30;;
78931;SDS011;68331;53.362;55.932;2023-08-07T14:13:46;9.55;;;8.55;;
78931;SDS011;68331;53.362;55.932;2023-08-07T14:16:13;10.13;;;8.40;;
78931;SDS011;68331;53.362;55.932;2023-08-07T14:18:39;9.68;;;8.68;;
78931;SDS011;68331;53.362;55.932;2023-08-07T14:21:05;9.75;;;8.52;;
78931;SDS011;68331;53.362;55.932;2023-08-07T14:23:31;9.50;;;7.97;;
78931;SDS011;68331;53.362;55.932;2023-08-07T14:25:57;11.30;;;8.98;;
78931;SDS011;68331;53.362;55.932;2023-08-07T14:28:22;14.05;;;9.25;;
78931;SDS011;68331;53.362;55.932;2023-08-07T14:30:48;11.20;;;9.02;;
78931;SDS011;68331;53.362;55.932;2023-08-07T14:33:15;9.88;;;8.55;;
78931;SDS011;68331;53.362;55.932;2023-08-07T14:35:42;9.27;;;8.30;;
78931;SDS011;68331;53.362;55.932;2023-08-07T14:38:08;10.05;;;8.85;;
78931;SDS011;68331;53.362;55.932;2023-08-07T14:40:34;10.48;;;8.10;;
78931;SDS011;68331;53.362;55.932;2023-08-07T14:43:05;8.55;;;7.70;;
78931;SDS011;68331;53.362;55.932;2023-08-07T14:45:30;11.25;;;8.63;;
78931;SDS011;68331;53.362;55.932;2023-08-07T14:47:57;10.20;;;8.98;;
78931;SDS011;68331;53.362;55.932;2023-08-07T14:50:23;11.30;;;8.45;;
78931;SDS011;68331;53.362;55.932;2023-08-07T14:52:48;13.05;;;8.70;;
78931;SDS011;68331;53.362;55.932;2023-08-07T14:55:14;11.05;;;9.20;;
78931;SDS011;68331;53.362;55.932;2023-08-07T14:57:40;9.57;;;8.60;;
78931;SDS011;68331;53.362;55.932;2023-08-07T15:00:06;10.25;;;8.93;;
78931;SDS011;68331;53.362;55.932;2023-08-07T15:02:34;11.07;;;8.18;;
78931;SDS011;68331;53.362;55.932;2023-08-07T15:05:00;14.02;;;9.82;;
78931;SDS011;68331;53.362;55.932;2023-08-07T15:07:26;9.95;;;8.73;;
78931;SDS011;68331;53.362;55.932;2023-08-07T15:09:53;11.93;;;8.95;;
78931;SDS011;68331;53.362;55.932;2023-08-07T15:12:19;12.55;;;9.27;;
78931;SDS011;68331;53.362;55.932;2023-08-07T15:14:45;14.90;;;9.32;;
78931;SDS011;68331;53.362;55.932;2023-08-07T15:17:11;12.00;;;9.07;;
78931;SDS011;68331;53.362;55.932;2023-08-07T15:19:37;11.68;;;9.52;;
78931;SDS011;68331;53.362;55.932;2023-08-07T15:22:03;11.90;;;9.23;;